Aviation Digital Data Service (ADDS)

Output produced by TAFs form (0148 UTC 18 October 2017)
found at http://www.aviationweather.gov/adds/tafs/
 
KGSO 172326Z 1723/1824 05004KT P6SM SKC